createdAt,value
2018-09-14T00:00:13.946Z,80.61
2018-09-14T00:02:42.904Z,82.68
2018-09-14T00:05:11.909Z,83.34
2018-09-14T00:07:41.127Z,83.07
2018-09-14T00:10:14.282Z,84.00
2018-09-14T00:12:43.380Z,84.30
2018-09-14T00:15:12.425Z,84.43
2018-09-14T00:17:41.457Z,84.68
2018-09-14T00:20:13.220Z,85.35
2018-09-14T00:25:35.314Z,85.02
2018-09-14T00:28:04.220Z,85.43
2018-09-14T00:30:36.475Z,86.08
2018-09-14T00:33:05.614Z,85.98
2018-09-14T00:35:34.566Z,85.77
2018-09-14T00:38:04.600Z,85.25
2018-09-14T00:40:33.683Z,83.22
2018-09-14T00:43:04.806Z,83.24
2018-09-14T00:45:40.810Z,83.10
2018-09-14T00:48:10.747Z,82.21
2018-09-14T00:50:39.718Z,83.16
2018-09-14T00:53:14.564Z,83.53
2018-09-14T00:58:35.217Z,86.20
2018-09-14T01:01:04.234Z,87.65
2018-09-14T01:03:52.378Z,87.94
2018-09-14T01:06:22.381Z,88.20
2018-09-14T01:08:52.027Z,88.72
2018-09-14T01:11:21.398Z,89.88
2018-09-14T01:13:53.828Z,91.10
2018-09-14T01:16:32.859Z,91.57
2018-09-14T01:19:07.681Z,91.60
2018-09-14T01:21:40.443Z,92.69
2018-09-14T01:24:10.108Z,93.10
2018-09-14T01:26:46.098Z,93.14
2018-09-14T01:29:18.965Z,93.90
2018-09-14T01:31:48.180Z,93.71
2018-09-14T01:34:25.521Z,94.74
2018-09-14T01:36:58.310Z,95.40
2018-09-14T01:39:27.408Z,95.43
2018-09-14T01:41:57.223Z,95.57
2018-09-14T01:44:26.228Z,95.61
2018-09-14T01:46:55.285Z,96.58
2018-09-14T01:49:28.989Z,96.03
2018-09-14T01:52:11.227Z,96.76
2018-09-14T01:54:43.885Z,96.77
2018-09-14T01:57:19.372Z,95.91
2018-09-14T01:59:48.276Z,96.33
2018-09-14T02:02:17.370Z,95.50
2018-09-14T02:04:47.347Z,95.97
2018-09-14T02:07:17.282Z,95.60
2018-09-14T02:09:48.471Z,95.45
2018-09-14T02:12:17.538Z,93.79
2018-09-14T02:14:47.640Z,93.51
2018-09-14T02:17:23.098Z,93.49
2018-09-14T02:19:52.093Z,92.91
2018-09-14T02:22:21.066Z,92.05
2018-09-14T02:24:50.143Z,92.64
2018-09-14T02:27:23.738Z,91.78
2018-09-14T02:29:58.056Z,92.07
2018-09-14T02:32:33.490Z,92.40
2018-09-14T02:35:02.900Z,92.37
2018-09-14T02:37:31.875Z,91.56
2018-09-14T02:40:06.992Z,92.40
2018-09-14T02:42:39.689Z,92.50
2018-09-14T02:45:08.846Z,91.16
2018-09-14T02:47:37.842Z,90.81
2018-09-14T02:50:07.340Z,90.21
2018-09-14T02:52:36.659Z,90.12
2018-09-14T02:55:05.826Z,88.90
2018-09-14T02:57:34.730Z,88.61
2018-09-14T03:00:10.064Z,87.54
2018-09-14T03:02:39.228Z,87.68
2018-09-14T03:05:08.231Z,86.95
2018-09-14T03:07:39.046Z,86.87
2018-09-14T03:10:12.161Z,85.51
2018-09-14T03:12:41.605Z,85.96
2018-09-14T03:15:11.570Z,85.73
2018-09-14T03:17:41.525Z,85.66
2018-09-14T03:20:10.976Z,85.55
2018-09-14T03:22:39.851Z,85.57
2018-09-14T03:25:09.917Z,85.75
2018-09-14T03:27:39.198Z,85.69
2018-09-14T03:30:08.089Z,85.17
2018-09-14T03:32:36.988Z,85.62
2018-09-14T03:35:06.721Z,85.63
2018-09-14T03:37:42.108Z,85.81
2018-09-14T03:40:11.477Z,85.91
2018-09-14T03:42:40.684Z,85.60
2018-09-14T03:45:09.731Z,85.67
2018-09-14T03:47:39.016Z,86.25
2018-09-14T03:50:08.120Z,87.03
2018-09-14T03:52:37.153Z,86.45
2018-09-14T03:55:07.632Z,87.45
2018-09-14T03:57:36.555Z,87.44
2018-09-14T04:00:05.459Z,86.88
2018-09-14T04:02:35.018Z,86.50
2018-09-14T04:05:04.142Z,86.37
2018-09-14T04:07:33.119Z,86.24
2018-09-14T04:10:02.612Z,86.16
2018-09-14T04:12:31.481Z,85.50
2018-09-14T04:15:00.357Z,85.53
2018-09-14T04:17:29.342Z,84.40
2018-09-14T04:19:58.334Z,84.19
2018-09-14T04:22:27.301Z,84.45
2018-09-14T04:24:56.183Z,83.92
2018-09-14T04:27:25.290Z,83.92
2018-09-14T04:29:54.209Z,83.74
2018-09-14T04:32:23.115Z,84.50
2018-09-14T04:34:52.111Z,84.80
2018-09-14T04:37:21.267Z,83.74
2018-09-14T04:39:50.427Z,84.12
2018-09-14T04:42:19.462Z,83.22
2018-09-14T04:44:48.412Z,83.48
2018-09-14T04:47:17.341Z,82.92
2018-09-14T04:49:46.175Z,82.55
2018-09-14T04:52:15.257Z,81.94
2018-09-14T04:54:44.619Z,81.37
2018-09-14T04:57:13.621Z,81.31
2018-09-14T04:59:42.681Z,80.85
2018-09-14T05:02:12.003Z,80.03
2018-09-14T05:04:40.960Z,79.99
2018-09-14T05:07:17.307Z,79.31
2018-09-14T05:10:09.272Z,78.42
2018-09-14T05:12:38.314Z,79.70
2018-09-14T05:15:07.364Z,79.09
2018-09-14T05:17:36.223Z,79.55
2018-09-14T05:20:05.123Z,78.28
2018-09-14T05:22:34.302Z,77.58
2018-09-14T05:25:03.383Z,77.95
2018-09-14T05:27:32.316Z,77.04
2018-09-14T05:30:01.347Z,76.63
2018-09-14T05:32:30.544Z,75.76
2018-09-14T05:35:00.856Z,76.21
2018-09-14T05:37:30.818Z,75.93
2018-09-14T05:40:03.162Z,75.41
2018-09-14T05:42:48.613Z,74.18
2018-09-14T05:45:23.309Z,73.84
2018-09-14T05:48:04.377Z,73.74
2018-09-14T05:50:42.015Z,73.53
2018-09-14T05:53:10.999Z,73.38
2018-09-14T05:55:41.880Z,73.21
2018-09-14T05:58:11.856Z,72.50
2018-09-14T06:00:40.906Z,72.37
2018-09-14T06:03:10.214Z,71.69
2018-09-14T06:05:40.161Z,71.33
2018-09-14T06:08:09.157Z,70.96
2018-09-14T06:10:38.754Z,70.69
2018-09-14T06:13:09.658Z,70.56
2018-09-14T06:15:38.570Z,70.70
2018-09-14T06:18:08.009Z,70.68
2018-09-14T06:20:36.926Z,70.08
2018-09-14T06:23:05.997Z,69.49
2018-09-14T06:25:35.182Z,68.79
2018-09-14T06:28:04.174Z,68.49
2018-09-14T06:30:34.504Z,68.66
2018-09-14T06:33:03.420Z,68.68
2018-09-14T06:35:32.337Z,68.32
2018-09-14T06:38:01.388Z,67.29
2018-09-14T06:40:30.273Z,65.37
2018-09-14T06:43:01.898Z,66.14
2018-09-14T06:45:30.817Z,65.11
2018-09-14T06:47:59.948Z,64.61
2018-09-14T06:50:29.598Z,63.39
2018-09-14T06:52:59.316Z,62.68
2018-09-14T06:55:28.278Z,62.86
2018-09-14T06:57:57.575Z,61.79
2018-09-14T07:00:26.750Z,61.00
2018-09-14T07:02:58.012Z,60.16
2018-09-14T07:05:26.864Z,60.68
2018-09-14T07:07:55.892Z,59.82
2018-09-14T07:10:25.156Z,58.96
2018-09-14T07:12:53.979Z,58.02
2018-09-14T07:15:23.116Z,57.72
2018-09-14T07:17:52.399Z,56.97
2018-09-14T07:20:21.264Z,57.18
2018-09-14T07:22:50.080Z,56.79
2018-09-14T07:25:19.464Z,56.66
2018-09-14T07:27:49.305Z,56.89
2018-09-14T07:30:18.226Z,56.01
2018-09-14T07:32:48.577Z,54.25
2018-09-14T07:35:17.517Z,55.20
2018-09-14T07:37:46.391Z,53.58
2018-09-14T07:40:15.845Z,54.33
2018-09-14T07:42:44.923Z,54.03
2018-09-14T07:45:13.732Z,54.04
2018-09-14T07:47:42.754Z,54.24
2018-09-14T07:50:11.489Z,53.91
2018-09-14T07:52:40.657Z,52.91
2018-09-14T07:55:09.629Z,53.02
2018-09-14T07:57:39.554Z,52.86
2018-09-14T08:00:08.454Z,52.08
2018-09-14T08:02:37.896Z,51.58
2018-09-14T08:05:07.027Z,51.70
2018-09-14T08:07:35.876Z,49.91
2018-09-14T08:10:05.170Z,50.66
2018-09-14T08:12:34.109Z,50.31
2018-09-14T08:15:03.208Z,49.68
2018-09-14T08:17:32.298Z,50.84
2018-09-14T08:20:01.545Z,49.81
2018-09-14T08:22:30.483Z,49.29
2018-09-14T08:24:59.948Z,48.94
2018-09-14T08:27:28.877Z,49.68
2018-09-14T08:29:57.934Z,48.21
2018-09-14T08:32:27.265Z,48.16
2018-09-14T08:34:56.227Z,47.31
2018-09-14T08:37:25.222Z,47.51
2018-09-14T08:39:54.347Z,48.29
2018-09-14T08:42:23.502Z,47.35
2018-09-14T08:44:52.644Z,46.98
2018-09-14T08:47:21.580Z,46.79
2018-09-14T08:49:52.544Z,46.57
2018-09-14T08:52:22.824Z,46.56
2018-09-14T08:54:51.750Z,46.46
2018-09-14T08:57:20.661Z,45.48
2018-09-14T08:59:50.019Z,46.55
2018-09-14T09:02:19.098Z,46.19
2018-09-14T09:04:48.194Z,45.31
2018-09-14T09:07:18.764Z,43.80
2018-09-14T09:09:47.646Z,43.81
2018-09-14T09:12:16.755Z,43.68
2018-09-14T09:14:45.717Z,43.75
2018-09-14T09:17:14.673Z,42.17
2018-09-14T09:19:43.651Z,43.23
2018-09-14T09:22:12.884Z,42.61
2018-09-14T09:24:41.990Z,43.05
2018-09-14T09:27:10.913Z,41.65
2018-09-14T09:29:39.996Z,42.40
2018-09-14T09:32:10.041Z,42.29
2018-09-14T09:34:39.138Z,42.14
2018-09-14T09:37:08.211Z,43.02
2018-09-14T09:39:37.235Z,42.33
2018-09-14T09:42:08.790Z,41.84
2018-09-14T09:44:37.705Z,41.29
2018-09-14T09:47:06.597Z,40.74
2018-09-14T09:49:36.907Z,40.57
2018-09-14T09:52:06.201Z,40.50
2018-09-14T09:54:35.137Z,40.86
2018-09-14T09:57:04.149Z,39.78
2018-09-14T09:59:32.942Z,39.57
2018-09-14T10:02:07.389Z,39.84
2018-09-14T10:04:41.421Z,39.65
2018-09-14T10:07:11.779Z,39.93
2018-09-14T10:09:40.726Z,39.03
2018-09-14T10:12:09.839Z,39.04
2018-09-14T10:14:38.987Z,38.14
2018-09-14T10:17:07.957Z,38.26
2018-09-14T10:19:37.111Z,38.28
2018-09-14T10:22:06.545Z,37.83
2018-09-14T10:24:35.350Z,38.29
2018-09-14T10:27:04.393Z,37.26
2018-09-14T10:29:33.821Z,37.95
2018-09-14T10:32:02.848Z,37.50
2018-09-14T10:34:31.696Z,37.13
2018-09-14T10:37:01.180Z,36.23
2018-09-14T10:39:30.525Z,36.17
2018-09-14T10:41:59.463Z,36.41
2018-09-14T10:44:28.543Z,37.39
2018-09-14T10:46:57.513Z,36.14
2018-09-14T10:49:26.584Z,35.97
2018-09-14T10:51:55.537Z,36.20
2018-09-14T10:54:24.650Z,35.86
2018-09-14T10:56:53.552Z,34.46
2018-09-14T10:59:22.540Z,35.03
2018-09-14T11:01:51.350Z,36.03
2018-09-14T11:04:20.311Z,35.50
2018-09-14T11:06:49.770Z,35.47
2018-09-14T11:09:18.745Z,35.15
2018-09-14T11:11:47.848Z,34.12
2018-09-14T11:14:17.477Z,34.22
2018-09-14T11:16:46.361Z,33.67
2018-09-14T11:19:15.208Z,33.62
2018-09-14T11:21:44.467Z,33.17
2018-09-14T11:24:13.405Z,33.77
2018-09-14T11:26:42.519Z,33.31
2018-09-14T11:29:11.811Z,33.85
2018-09-14T11:31:40.680Z,33.31
2018-09-14T11:34:09.574Z,33.72
2018-09-14T11:36:38.522Z,34.40
2018-09-14T11:39:09.802Z,33.18
2018-09-14T11:41:39.015Z,34.03
2018-09-14T11:44:07.921Z,32.89
2018-09-14T11:46:36.965Z,31.69
2018-09-14T11:49:05.765Z,32.63
2018-09-14T11:51:34.633Z,31.66
2018-09-14T11:54:03.798Z,32.52
2018-09-14T11:56:32.966Z,32.92
2018-09-14T11:59:02.010Z,32.34
2018-09-14T12:01:31.004Z,30.72
2018-09-14T12:04:00.100Z,31.23
2018-09-14T12:06:29.031Z,30.58
2018-09-14T12:08:57.923Z,30.03
2018-09-14T12:11:27.228Z,30.72
2018-09-14T12:13:56.139Z,30.46
2018-09-14T12:16:25.103Z,30.96
2018-09-14T12:18:54.106Z,30.30
2018-09-14T12:21:22.849Z,30.64
2018-09-14T12:23:51.933Z,30.49
2018-09-14T12:26:21.383Z,29.61
2018-09-14T12:28:50.144Z,29.43
2018-09-14T12:31:19.226Z,29.33
2018-09-14T12:33:48.367Z,28.95
2018-09-14T12:36:17.601Z,28.67
2018-09-14T12:38:46.614Z,28.64
2018-09-14T12:41:15.923Z,28.36
2018-09-14T12:43:44.847Z,28.38
2018-09-14T12:46:13.817Z,27.20
2018-09-14T12:48:43.205Z,27.15
2018-09-14T12:51:12.006Z,27.35
2018-09-14T12:53:40.903Z,28.03
2018-09-14T12:56:10.289Z,27.33
2018-09-14T12:58:39.265Z,28.06
2018-09-14T13:01:08.212Z,28.50
2018-09-14T13:03:37.264Z,27.64
2018-09-14T13:06:06.348Z,29.26
2018-09-14T13:08:35.288Z,28.27
2018-09-14T13:11:04.650Z,29.22
2018-09-14T13:16:12.247Z,28.62
2018-09-14T13:18:41.536Z,29.55
2018-09-14T13:21:10.495Z,29.75
2018-09-14T13:23:41.657Z,29.94
2018-09-14T13:26:10.980Z,30.60
2018-09-14T13:28:40.921Z,28.26
2018-09-14T13:31:10.655Z,29.60
2018-09-14T13:33:39.451Z,30.95
2018-09-14T13:36:08.486Z,29.97
2018-09-14T13:38:37.742Z,30.37
2018-09-14T13:41:06.988Z,29.84
2018-09-14T13:43:38.355Z,29.83
2018-09-14T13:46:10.477Z,30.92
2018-09-14T13:48:40.470Z,30.27
2018-09-14T13:51:09.407Z,30.64
2018-09-14T13:53:38.264Z,30.89
2018-09-14T13:56:07.538Z,31.17
2018-09-14T13:58:36.502Z,30.85
2018-09-14T14:01:05.452Z,31.89
2018-09-14T14:03:34.800Z,31.14
2018-09-14T14:06:03.901Z,30.20
2018-09-14T14:08:32.746Z,31.07
2018-09-14T14:11:01.589Z,29.86
2018-09-14T14:13:30.461Z,30.72
2018-09-14T14:15:59.286Z,30.58
2018-09-14T14:18:28.292Z,30.20
2018-09-14T14:20:57.333Z,30.79
2018-09-14T14:23:26.233Z,31.16
2018-09-14T14:25:55.424Z,30.88
2018-09-14T14:28:24.277Z,31.34
2018-09-14T14:30:53.406Z,31.92
2018-09-14T14:33:22.706Z,31.74
2018-09-14T14:35:51.662Z,31.61
2018-09-14T14:38:20.577Z,32.52
2018-09-14T14:40:49.997Z,32.25
2018-09-14T14:43:18.881Z,32.69
2018-09-14T14:45:47.964Z,33.24
2018-09-14T14:48:16.888Z,31.94
2018-09-14T14:50:45.729Z,31.69
2018-09-14T14:53:14.637Z,32.63
2018-09-14T14:55:43.916Z,30.52
2018-09-14T14:58:12.728Z,29.61
2018-09-14T15:00:41.583Z,30.44
2018-09-14T15:03:10.453Z,30.37
2018-09-14T15:05:40.427Z,30.02
2018-09-14T15:08:09.544Z,30.30
2018-09-14T15:10:38.743Z,30.04
2018-09-14T15:13:07.524Z,29.58
2018-09-14T15:15:36.455Z,30.11
2018-09-14T15:18:05.945Z,31.29
2018-09-14T15:20:34.817Z,31.58
2018-09-14T15:23:03.591Z,32.03
2018-09-14T15:25:32.614Z,32.65
2018-09-14T15:28:01.446Z,32.22
2018-09-14T15:30:30.437Z,31.76
2018-09-14T15:32:59.487Z,32.99
2018-09-14T15:35:28.505Z,33.15
2018-09-14T15:37:57.501Z,33.14
2018-09-14T15:40:26.447Z,32.31
2018-09-14T15:42:55.345Z,34.04
2018-09-14T15:45:24.336Z,33.49
2018-09-14T15:47:53.782Z,33.26
2018-09-14T15:50:22.772Z,33.57
2018-09-14T15:52:51.679Z,33.92
2018-09-14T15:55:21.119Z,34.44
2018-09-14T15:57:50.275Z,34.90
2018-09-14T16:00:21.963Z,34.71
2018-09-14T16:02:52.469Z,36.15
2018-09-14T16:05:21.492Z,36.79
2018-09-14T16:07:50.767Z,38.11
2018-09-14T16:10:19.984Z,38.73
2018-09-14T16:12:49.152Z,39.22
2018-09-14T16:15:18.108Z,40.05
2018-09-14T16:17:46.849Z,39.84
2018-09-14T16:20:15.805Z,40.33
2018-09-14T16:22:44.953Z,40.67
2018-09-14T16:25:13.846Z,40.80
2018-09-14T16:27:42.760Z,40.74
2018-09-14T16:30:11.533Z,41.88
2018-09-14T16:32:40.338Z,41.39
2018-09-14T16:35:09.485Z,41.45
2018-09-14T16:37:38.329Z,41.69
2018-09-14T16:40:07.416Z,42.47
2018-09-14T16:42:36.504Z,42.24
2018-09-14T16:45:05.850Z,43.30
2018-09-14T16:47:34.689Z,43.71
2018-09-14T16:50:04.012Z,43.59
2018-09-14T16:52:32.965Z,43.72
2018-09-14T16:55:01.796Z,44.88
2018-09-14T16:57:31.087Z,44.65
2018-09-14T17:00:00.062Z,45.93
2018-09-14T17:03:32.176Z,45.81
2018-09-14T17:06:01.365Z,46.84
2018-09-14T17:08:30.241Z,47.37
2018-09-14T17:10:59.357Z,47.78
2018-09-14T17:13:28.261Z,48.68
2018-09-14T17:15:57.167Z,49.15
2018-09-14T17:18:26.077Z,49.20
2018-09-14T17:20:54.905Z,49.04
2018-09-14T17:23:23.757Z,49.95
2018-09-14T17:25:52.561Z,49.51
2018-09-14T17:28:21.397Z,49.96
2018-09-14T17:30:50.240Z,50.76
2018-09-14T17:33:19.141Z,50.61
2018-09-14T17:35:47.872Z,51.18
2018-09-14T17:38:16.660Z,50.50
2018-09-14T17:40:45.865Z,51.24
2018-09-14T17:43:14.721Z,50.86
2018-09-14T17:45:43.509Z,51.33
2018-09-14T17:48:12.301Z,51.45
2018-09-14T17:50:41.124Z,51.85
2018-09-14T17:53:09.867Z,52.52
2018-09-14T17:55:39.018Z,51.80
2018-09-14T17:58:07.719Z,51.80
2018-09-14T18:00:36.601Z,52.46
2018-09-14T18:03:05.900Z,51.93
2018-09-14T18:05:34.707Z,51.22
2018-09-14T18:08:03.437Z,51.17
2018-09-14T18:10:32.406Z,51.20
2018-09-14T18:13:01.256Z,51.61
2018-09-14T18:15:30.063Z,51.71
2018-09-14T18:17:59.046Z,52.61
2018-09-14T18:20:27.936Z,52.54
2018-09-14T18:22:56.739Z,52.01
2018-09-14T18:25:25.858Z,52.05
2018-09-14T18:27:54.863Z,51.01
2018-09-14T18:30:23.622Z,51.88
2018-09-14T18:32:53.001Z,52.21
2018-09-14T18:35:21.923Z,53.08
2018-09-14T18:37:50.663Z,53.46
2018-09-14T18:40:19.827Z,54.60
2018-09-14T18:42:48.683Z,55.09
2018-09-14T18:45:17.566Z,55.17
2018-09-14T18:47:46.424Z,55.47
2018-09-14T18:50:15.246Z,55.39
2018-09-14T18:52:44.169Z,56.25
2018-09-14T18:55:13.061Z,56.54
2018-09-14T18:57:41.948Z,56.73
2018-09-14T19:00:10.745Z,56.92
2018-09-14T19:02:40.006Z,55.73
2018-09-14T19:05:08.786Z,55.07
2018-09-14T19:07:37.619Z,55.31
2018-09-14T19:10:07.266Z,54.83
2018-09-14T19:12:36.152Z,55.55
2018-09-14T19:15:05.013Z,56.23
2018-09-14T19:17:34.075Z,56.42
2018-09-14T19:20:02.868Z,55.61
2018-09-14T19:22:31.824Z,56.30
2018-09-14T19:25:01.635Z,56.23
2018-09-14T19:27:30.444Z,57.39
2018-09-14T19:29:59.305Z,57.55
2018-09-14T19:32:28.246Z,56.77
2018-09-14T19:34:57.114Z,57.24
2018-09-14T19:37:26.037Z,57.83
2018-09-14T19:39:54.876Z,58.03
2018-09-14T19:42:23.864Z,58.58
2018-09-14T19:44:52.627Z,59.06
2018-09-14T19:47:21.699Z,58.81
2018-09-14T19:49:50.661Z,59.46
2018-09-14T19:52:19.518Z,59.12
2018-09-14T19:54:48.877Z,58.67
2018-09-14T19:57:17.710Z,59.75
2018-09-14T19:59:46.435Z,59.03
2018-09-14T20:02:15.559Z,59.58
2018-09-14T20:04:44.356Z,57.81
2018-09-14T20:07:13.183Z,57.96
2018-09-14T20:09:42.508Z,58.43
2018-09-14T20:12:11.472Z,58.04
2018-09-14T20:14:40.363Z,57.16
2018-09-14T20:17:09.304Z,56.06
2018-09-14T20:19:38.089Z,56.96
2018-09-14T20:22:07.542Z,57.27
2018-09-14T20:24:36.767Z,58.11
2018-09-14T20:27:05.655Z,58.11
2018-09-14T20:29:34.520Z,58.20
2018-09-14T20:32:03.843Z,57.14
2018-09-14T20:34:32.628Z,56.81
2018-09-14T20:37:01.558Z,56.72
2018-09-14T20:39:30.925Z,56.90
2018-09-14T20:41:59.771Z,57.51
2018-09-14T20:44:29.170Z,57.04
2018-09-14T20:46:58.610Z,56.83
2018-09-14T20:49:27.435Z,56.95
2018-09-14T20:51:56.219Z,56.64
2018-09-14T20:54:25.104Z,56.90
2018-09-14T20:56:54.045Z,57.55
2018-09-14T20:59:22.967Z,58.13
2018-09-14T21:01:52.144Z,58.12
2018-09-14T21:04:20.898Z,58.45
2018-09-14T21:06:49.609Z,58.52
2018-09-14T21:09:18.743Z,58.54
2018-09-14T21:11:47.508Z,59.03
2018-09-14T21:14:16.360Z,59.00
2018-09-14T21:16:45.228Z,59.17
2018-09-14T21:19:14.081Z,59.63
2018-09-14T21:21:42.850Z,59.73
2018-09-14T21:24:12.113Z,60.60
2018-09-14T21:26:40.960Z,60.83
2018-09-14T21:29:09.711Z,61.49
2018-09-14T21:31:39.096Z,62.21
2018-09-14T21:34:07.965Z,62.18
2018-09-14T21:36:36.877Z,62.47
2018-09-14T21:39:09.340Z,62.86
2018-09-14T21:41:38.098Z,62.66
2018-09-14T21:44:07.102Z,62.27
2018-09-14T21:46:36.213Z,62.69
2018-09-14T21:49:05.065Z,62.58
2018-09-14T21:51:33.859Z,62.39
2018-09-14T21:54:03.135Z,62.41
2018-09-14T21:56:31.970Z,62.80
2018-09-14T21:59:00.866Z,63.14
2018-09-14T22:01:30.659Z,63.60
2018-09-14T22:04:00.725Z,63.69
2018-09-14T22:06:29.711Z,63.81
2018-09-14T22:08:58.579Z,64.39
2018-09-14T22:11:27.455Z,64.89
2018-09-14T22:13:56.309Z,64.53
2018-09-14T22:16:25.557Z,64.56
2018-09-14T22:18:54.416Z,64.58
2018-09-14T22:21:23.195Z,64.72
2018-09-14T22:23:52.212Z,65.26
2018-09-14T22:26:21.086Z,65.83
2018-09-14T22:28:49.833Z,66.25
2018-09-14T22:31:19.131Z,66.29
2018-09-14T22:33:47.845Z,67.39
2018-09-14T22:36:16.706Z,67.84
2018-09-14T22:38:45.935Z,67.79
2018-09-14T22:41:14.873Z,68.67
2018-09-14T22:43:43.736Z,68.65
2018-09-14T22:46:12.537Z,68.60
2018-09-14T22:48:41.354Z,68.84
2018-09-14T22:51:10.113Z,68.83
2018-09-14T22:53:39.354Z,69.71
2018-09-14T22:56:08.210Z,69.98
2018-09-14T22:58:36.968Z,70.60
2018-09-14T23:01:10.975Z,70.74
2018-09-14T23:03:39.847Z,70.40
2018-09-14T23:06:08.624Z,71.11
2018-09-14T23:08:37.874Z,71.21
2018-09-14T23:11:06.969Z,70.51
2018-09-14T23:13:35.851Z,70.73
2018-09-14T23:16:04.975Z,71.48
2018-09-14T23:18:33.845Z,70.70
2018-09-14T23:21:02.681Z,70.78
2018-09-14T23:23:31.836Z,71.73
2018-09-14T23:26:07.153Z,73.03
2018-09-14T23:28:36.387Z,71.52
2018-09-14T23:31:05.242Z,71.93
2018-09-14T23:33:34.128Z,72.73
2018-09-14T23:36:03.428Z,73.10
2018-09-14T23:38:32.336Z,73.39
2018-09-14T23:41:01.215Z,73.03
2018-09-14T23:43:30.298Z,73.74
2018-09-14T23:45:59.132Z,73.51
2018-09-14T23:48:27.983Z,73.63
2018-09-14T23:50:57.206Z,74.40
2018-09-14T23:53:26.088Z,74.64
2018-09-14T23:55:54.840Z,73.91
2018-09-14T23:58:23.986Z,74.18
